NCAR-RAP Real-Time Weather Data

Output produced by METARs form (08 May 2021  01:47 UTC)
found at http://weather.rap.ucar.edu/surface/
 
KGJT 080053Z 27013G21KT 10SM CLR 28/M13 A2975 RMK AO2 PK WND 25027/2358 SLP010 T02781128
KGJT 072353Z AUTO 27019G27KT 10SM CLR 29/M13 A2977 RMK AO2 PK WND 23032/2312 SLP016 T02891133 10306 20267 56023
KGJT 072253Z AUTO 22007G19KT 10SM CLR 29/M09 A2978 RMK AO2 SLP019 T02941089
KGJT 072153Z AUTO 24010G23KT 10SM CLR 29/M08 A2981 RMK AO2 PK WND 23026/2141 WSHFT 2102 SLP030 T02891083
KGJT 072122Z AUTO 23017KT 10SM CLR 30/M08 A2983 RMK AO2 WSHFT 2102 T03001083
KGJT 072053Z AUTO 27008G19KT 10SM CLR 30/M07 A2985 RMK AO2 SLP040 T03001072 58031
KGJT 071953Z AUTO 32009G16KT 10SM CLR 28/M06 A2989 RMK AO2 SLP053 T02831056
KGJT 071853Z AUTO 31010KT 10SM CLR 27/M04 A2992 RMK AO2 SLP067 T02721039
KGJT 071753Z AUTO 30010KT 10SM CLR 27/M03 A2995 RMK AO2 SLP079 T02671028 10272 20122 58016
KGJT 071653Z AUTO 12011KT 10SM CLR 24/M04 A2997 RMK AO2 SLP089 T02441039
KGJT 071553Z AUTO 16009KT 10SM CLR 21/M04 A3000 RMK AO2 SLP103 T02061044
KGJT 071453Z AUTO 10013KT 10SM CLR 18/M04 A3001 RMK AO2 PRESFR SLP105 T01781039 58003
KGJT 071353Z AUTO 11017G23KT 10SM CLR 18/M05 A3002 RMK AO2 SLP102 T01781050
KGJT 071253Z 10016KT 10SM CLR 14/M03 A3002 RMK AO2 SLP105 T01391033
KGJT 071153Z AUTO 12011KT 10SM CLR 12/M03 A3002 RMK AO2 SLP103 T01221028 10172 20117 56004